Airfield :
LOGIN :

Register | Disclaimer

   EN    FR    IT 

 










Legend :    VFR   Marginal VFR   IFR   Intensive IFR   Very Intensive IFR
Visi :
Ceiling :
>= 8 km
>= 3000ft
5 to 8 km
1000 to 3000 ft
1500m to 5 km
500 to 1000 ft
800 to 1500m
200 to 500 ft
< 800m
< 200 ft
Symbols :   Thunderstorms  Fog  Heavy snow  Heavy precipitations  Wind > 20 kt
SIGMETs :     Misc.  Thunderstorms  Icing  Turbulence  Mountain Waves  Volcanic Ashes






- Airport Elevation : 49 ft
- IATA code : GLZ


EHGR - Gilze-Rijen Airbase

CURRENT METAR :
  • 031955Z AUTO 31008KT 280V360 9999 OVC260 17/11 Q1002 BLU

EXPIRED METARs :
  • 031925Z AUTO 31009KT 270V350 9999 OVC150 18/10 Q1002 BLU
  • 031855Z AUTO 32008KT 280V340 9999 OVC170 19/09 Q1002 BLU
  • 031825Z AUTO 32009KT 270V020 9999 OVC200 19/09 Q1002 BLU
  • 031755Z AUTO 31011KT 270V360 9999 OVC200 20/10 Q1002 BLU
  • 031725Z AUTO 32011KT 270V360 9999 OVC160 21/09 Q1002 BLU

TAF TAF EHGR
Valid from the 03 at 09:00 until the 03 at 21:00 UTC


030815Z 0309/0321 28007KT CAVOK
TEMPO 0313/0317 29010G20KT
BECMG 0315/0318 34008KT



MET'MAP, your aeronautical weather chart ! - Copyright ORBIFLY December 2007 - Disclaimer

ORBIFLY MET'MAP TEAM :

Programming & Development : Alexandra Zaïnal
Concept & original design : Baudouin d'Aumeries
Assistance for programming : Marc-Olivier Méhu
Technical & hardware support : Manuel Goepfert

Contact : metmap@orbifly.com




SOURCES & CREDITS :

   NOAA